Time;durP1;ratioP1;P1;durP2;ratioP2;P2;SDS_P1;SDS_P2;PMS_P1;PMS_P2;Temp;Humidity;BMP_temperature;BMP_pressure;BME280_temperature;BME280_humidity;BME280_pressure;Samples;Min_cycle;Max_cycle;Signal;HPM_P1;HPM_P2
2021/11/21 00:00:27;;;;;;;9.75;2.90;;;;;;;3.15;86.04;99715.00;1743291;82;21345;-77
2021/11/21 00:03:33;;;;;;;9.83;3.12;;;;;;;3.12;86.08;99711.75;1743401;82;21898;-77
2021/11/21 00:06:40;;;;;;;6.92;2.47;;;;;;;3.07;86.24;99703.58;1801901;79;21288;-77
2021/11/21 00:09:47;;;;;;;10.58;3.50;;;;;;;3.06;86.33;99710.48;1802940;79;22458;-77
2021/11/21 00:12:53;;;;;;;15.85;3.87;;;;;;;2.98;86.17;99708.48;1801851;79;21362;-77
2021/11/21 00:16:00;;;;;;;10.55;3.52;;;;;;;2.87;86.17;99708.64;1802302;79;21386;-77
2021/11/21 00:19:05;;;;;;;8.53;3.10;;;;;;;2.77;86.14;99715.36;1802727;79;21291;-77
2021/11/21 00:22:15;;;;;;;10.60;4.30;;;;;;;2.67;86.14;99726.65;1802852;79;21319;-77
2021/11/21 00:25:21;;;;;;;12.40;2.75;;;;;;;2.55;86.23;99725.09;1802971;79;21338;-77
2021/11/21 00:28:26;;;;;;;13.53;3.55;;;;;;;2.47;86.46;99728.97;1801739;79;21524;-77
2021/11/21 00:31:31;;;;;;;15.93;4.67;;;;;;;2.34;86.49;99728.36;1802289;79;21866;-76
2021/11/21 00:34:37;;;;;;;10.98;3.58;;;;;;;2.23;86.78;99736.08;1802764;79;21303;-77
2021/11/21 00:37:44;;;;;;;12.95;3.98;;;;;;;2.17;87.30;99740.19;1801328;79;21213;-77
2021/11/21 00:40:51;;;;;;;12.30;4.15;;;;;;;2.11;87.77;99743.41;1801408;79;21319;-76
2021/11/21 00:43:57;;;;;;;8.48;4.33;;;;;;;2.08;88.21;99740.15;1801597;79;21192;-77
2021/11/21 00:47:03;;;;;;;8.65;3.75;;;;;;;2.07;88.62;99742.47;1802207;79;21830;-76
2021/11/21 00:50:11;;;;;;;13.60;3.58;;;;;;;2.04;88.73;99735.52;1801373;79;21856;-76
2021/11/21 00:53:16;;;;;;;10.68;3.30;;;;;;;2.00;88.91;99734.08;1803282;79;21296;-76
2021/11/21 00:56:22;;;;;;;11.80;3.50;;;;;;;1.99;89.06;99733.22;1802881;79;21197;-76
2021/11/21 00:59:27;;;;;;;12.70;3.72;;;;;;;1.96;89.00;99739.38;1799950;79;21346;-76
2021/11/21 01:02:33;;;;;;;10.75;5.08;;;;;;;1.90;88.80;99744.82;1802846;79;21287;-77
2021/11/21 01:05:38;;;;;;;11.75;3.98;;;;;;;1.82;88.83;99737.03;1802768;79;21220;-77
2021/11/21 01:08:43;;;;;;;8.13;3.25;;;;;;;1.80;89.13;99739.88;1803009;79;21287;-77
2021/11/21 01:11:49;;;;;;;9.73;3.50;;;;;;;1.83;89.84;99736.89;1802832;79;22447;-77
2021/11/21 01:14:56;;;;;;;8.73;3.80;;;;;;;1.90;90.33;99737.23;1803520;79;21335;-77
2021/11/21 01:18:03;;;;;;;13.22;5.10;;;;;;;1.94;90.31;99741.37;1801240;79;21209;-76
2021/11/21 01:21:08;;;;;;;8.95;4.50;;;;;;;1.94;90.01;99745.41;1802807;79;21299;-76
2021/11/21 01:24:14;;;;;;;8.28;3.40;;;;;;;1.90;89.67;99753.41;1802803;79;21933;-76
2021/11/21 01:27:20;;;;;;;9.48;3.12;;;;;;;1.87;89.67;99754.52;1802366;79;21898;-77
2021/11/21 01:30:31;;;;;;;8.40;3.27;;;;;;;1.79;89.53;99757.91;1801377;79;21299;-76
2021/11/21 01:33:37;;;;;;;16.15;3.45;;;;;;;1.70;89.30;99749.77;1802599;79;21354;-76
2021/11/21 01:36:43;;;;;;;8.68;2.98;;;;;;;1.65;89.41;99748.81;1801396;79;21308;-76
2021/11/21 01:39:48;;;;;;;6.60;2.47;;;;;;;1.61;89.31;99751.91;1802916;79;21165;-76
2021/11/21 01:42:54;;;;;;;9.98;3.15;;;;;;;1.58;89.41;99753.02;1803037;79;21346;-77
2021/11/21 01:45:59;;;;;;;5.80;2.55;;;;;;;1.55;89.39;99745.18;1803033;79;21843;-76
2021/11/21 01:49:05;;;;;;;9.85;3.40;;;;;;;1.52;89.30;99746.81;1802790;79;21287;-77
2021/11/21 01:52:11;;;;;;;6.75;2.98;;;;;;;1.47;89.32;99748.56;1801354;79;21299;-77
2021/11/21 01:55:17;;;;;;;10.18;2.65;;;;;;;1.40;89.44;99750.55;1802652;79;21781;-76
2021/11/21 01:58:22;;;;;;;10.58;3.00;;;;;;;1.34;89.62;99757.83;1801658;79;21326;-76
2021/11/21 02:01:30;;;;;;;10.65;3.08;;;;;;;1.27;89.74;99753.43;1811528;79;21846;-76
2021/11/21 02:04:36;;;;;;;11.40;3.10;;;;;;;1.22;89.93;99751.16;1812118;79;21835;-76
2021/11/21 02:07:47;;;;;;;8.30;2.80;;;;;;;1.17;90.09;99756.05;1811260;79;21363;-76
2021/11/21 02:10:57;;;;;;;11.10;2.75;;;;;;;1.12;90.16;99760.98;1811551;79;21178;-76
2021/11/21 02:13:58;;;;;;;13.50;3.30;;;;;;;1.06;90.31;99752.08;1811444;79;21204;-77
2021/11/21 02:17:06;;;;;;;17.40;3.20;;;;;;;1.04;90.44;99753.20;1810110;79;21204;-76
2021/11/21 02:20:13;;;;;;;13.22;3.20;;;;;;;1.04;90.88;99753.20;1811674;79;21275;-77
2021/11/21 02:23:20;;;;;;;10.08;3.55;;;;;;;1.10;91.52;99758.06;1812272;79;21184;-76
2021/11/21 02:26:24;;;;;;;10.53;3.27;;;;;;;1.14;91.95;99754.98;1811494;79;21754;-76
2021/11/21 02:29:30;;;;;;;12.88;3.45;;;;;;;1.19;92.33;99748.71;1810031;79;21366;-76
2021/11/21 02:32:35;;;;;;;17.75;4.35;;;;;;;1.22;92.58;99740.38;1810149;79;21231;-77
2021/11/21 02:35:41;;;;;;;9.50;3.20;;;;;;;1.27;92.98;99743.53;1811532;79;21291;-76
2021/11/21 02:38:46;;;;;;;13.30;3.90;;;;;;;1.31;93.09;99749.49;1768594;79;21334;-79
2021/11/21 02:41:53;;;;;;;13.75;4.22;;;;;;;1.32;93.11;99752.58;1811412;79;21279;-78
2021/11/21 02:44:59;;;;;;;12.88;3.95;;;;;;;1.31;93.04;99754.88;1811070;79;21830;-78
2021/11/21 02:48:05;;;;;;;7.20;2.92;;;;;;;1.32;93.22;99757.08;1811715;79;21832;-78
2021/11/21 02:51:14;;;;;;;11.88;4.20;;;;;;;1.33;93.41;99761.02;1811419;79;21193;-78
2021/11/21 02:54:21;;;;;;;10.38;3.52;;;;;;;1.37;93.71;99769.70;1811648;79;21184;-77
2021/11/21 02:57:27;;;;;;;9.78;3.35;;;;;;;1.38;93.74;99772.75;1811622;79;21711;-78
2021/11/21 03:00:34;;;;;;;14.10;4.10;;;;;;;1.39;93.91;99778.00;1807622;79;21311;-77
2021/11/21 03:03:40;;;;;;;13.43;3.35;;;;;;;1.44;94.00;99776.25;1803884;79;21189;-78
2021/11/21 03:06:45;;;;;;;16.42;3.30;;;;;;;1.46;93.97;99773.81;1803319;79;21300;-78
2021/11/21 03:09:52;;;;;;;24.67;5.08;;;;;;;1.46;94.00;99768.91;1801423;79;21307;-78
2021/11/21 03:13:00;;;;;;;17.52;5.12;;;;;;;1.50;94.34;99768.48;1785320;79;21173;-78
2021/11/21 03:16:05;;;;;;;20.95;5.80;;;;;;;1.55;94.36;99765.40;1802006;79;21335;-77
2021/11/21 03:19:11;;;;;;;34.65;9.00;;;;;;;1.54;94.23;99772.63;1802192;79;21327;-78
2021/11/21 03:22:18;;;;;;;18.73;6.53;;;;;;;1.54;94.18;99762.34;1802859;79;21288;-78
2021/11/21 03:25:25;;;;;;;23.77;7.05;;;;;;;1.55;94.19;99770.79;1801348;79;21189;-77
2021/11/21 03:28:29;;;;;;;29.60;7.67;;;;;;;1.53;94.23;99764.19;1801281;79;21835;-78
2021/11/21 03:31:37;;;;;;;24.52;7.47;;;;;;;1.53;94.37;99761.50;1801582;79;21295;-78
2021/11/21 03:34:44;;;;;;;25.02;7.47;;;;;;;1.58;94.48;99758.41;1802889;79;21838;-78
2021/11/21 03:37:52;;;;;;;24.20;8.95;;;;;;;1.58;94.59;99757.06;1802178;79;21874;-78
2021/11/21 03:40:58;;;;;;;38.33;9.60;;;;;;;1.59;94.67;99761.45;1802798;79;21841;-78
2021/11/21 03:44:04;;;;;;;26.12;8.50;;;;;;;1.61;94.70;99755.95;1802803;79;21284;-78
2021/11/21 03:47:10;;;;;;;29.12;9.65;;;;;;;1.62;94.68;99759.85;1801383;79;21814;-77
2021/11/21 03:50:16;;;;;;;29.48;10.55;;;;;;;1.66;94.89;99749.67;1801311;79;21193;-78
2021/11/21 03:53:23;;;;;;;24.80;9.95;;;;;;;1.69;94.92;99751.58;1801440;79;21787;-77
2021/11/21 03:56:28;;;;;;;33.65;10.65;;;;;;;1.72;94.85;99749.13;1802894;79;21871;-78
2021/11/21 03:59:33;;;;;;;26.55;9.63;;;;;;;1.73;94.66;99743.59;1802336;79;21355;-76
2021/11/21 04:02:39;;;;;;;26.05;10.15;;;;;;;1.75;94.59;99752.91;1800048;79;21851;-76
2021/11/21 04:05:46;;;;;;;29.27;9.50;;;;;;;1.77;94.50;99756.31;1802802;79;21213;-76
2021/11/21 04:08:51;;;;;;;26.05;10.72;;;;;;;1.76;94.52;99755.47;1802737;79;21346;-76
2021/11/21 04:11:58;;;;;;;25.72;9.98;;;;;;;1.75;94.55;99755.11;1802924;79;21821;-76
2021/11/21 04:15:04;;;;;;;30.65;9.75;;;;;;;1.75;94.52;99764.55;1802734;79;21296;-78
2021/11/21 04:18:10;;;;;;;30.00;9.95;;;;;;;1.75;94.34;99768.59;1802815;79;21287;-76
2021/11/21 04:21:17;;;;;;;24.30;10.20;;;;;;;1.74;94.11;99776.80;1802922;79;21664;-76
2021/11/21 04:24:22;;;;;;;28.92;11.45;;;;;;;1.71;93.96;99783.33;1802764;79;21339;-79
2021/11/21 04:27:27;;;;;;;27.65;10.20;;;;;;;1.67;94.00;99783.22;1802787;79;21283;-79
2021/11/21 04:30:31;;;;;;;24.32;10.30;;;;;;;1.63;94.01;99788.52;1803090;79;21380;-76
2021/11/21 04:33:37;;;;;;;23.38;9.30;;;;;;;1.56;93.87;99790.05;1802821;79;21216;-76
2021/11/21 04:36:43;;;;;;;35.33;12.68;;;;;;;1.49;93.94;99790.19;1802846;79;21803;-76
2021/11/21 04:39:48;;;;;;;29.27;11.70;;;;;;;1.41;94.05;99789.52;1802412;79;21319;-77
2021/11/21 04:42:53;;;;;;;36.00;13.53;;;;;;;1.37;94.26;99780.48;1802954;79;21225;-77
2021/11/21 04:45:59;;;;;;;31.52;13.95;;;;;;;1.34;94.54;99778.03;1802968;79;21355;-77
2021/11/21 04:49:05;;;;;;;28.10;12.43;;;;;;;1.32;94.77;99785.38;1802746;79;21901;-77
2021/11/21 04:52:11;;;;;;;35.78;13.15;;;;;;;1.30;94.94;99776.58;1802822;79;21220;-77
2021/11/21 04:55:17;;;;;;;28.80;12.88;;;;;;;1.28;95.02;99774.03;1803642;79;21314;-77
2021/11/21 04:58:22;;;;;;;28.45;12.70;;;;;;;1.27;94.89;99778.56;1802799;79;21350;-77
2021/11/21 05:01:28;;;;;;;28.83;12.45;;;;;;;1.27;94.81;99785.77;1801520;79;21339;-77
2021/11/21 05:04:34;;;;;;;25.95;11.28;;;;;;;1.23;94.80;99789.23;1771003;79;21331;-77
2021/11/21 05:07:40;;;;;;;24.87;11.18;;;;;;;1.21;94.88;99783.10;1768072;81;21315;-77
2021/11/21 05:10:46;;;;;;;29.92;10.10;;;;;;;1.20;94.86;99790.83;1767677;81;21840;-77
2021/11/21 05:13:53;;;;;;;28.10;10.98;;;;;;;1.17;94.66;99786.18;1766564;81;21184;-76
2021/11/21 05:16:59;;;;;;;23.20;8.63;;;;;;;1.18;94.89;99783.88;1768385;81;21336;-77
2021/11/21 05:20:05;;;;;;;22.02;8.60;;;;;;;1.19;94.88;99774.31;1767893;81;21351;-77
2021/11/21 05:23:10;;;;;;;29.23;8.53;;;;;;;1.11;94.39;99772.75;1768302;81;21296;-77
2021/11/21 05:26:16;;;;;;;29.07;8.78;;;;;;;1.01;94.24;99771.31;1768058;81;21312;-76
2021/11/21 05:29:21;;;;;;;21.50;7.30;;;;;;;0.98;94.58;99763.98;1766706;81;21899;-77
2021/11/21 05:32:28;;;;;;;18.77;7.15;;;;;;;1.03;95.03;99769.83;1766871;81;21894;-76
2021/11/21 05:35:33;;;;;;;21.48;6.00;;;;;;;1.11;95.41;99776.78;1769239;81;21257;-76
2021/11/21 05:38:39;;;;;;;21.02;7.00;;;;;;;1.24;95.94;99776.12;1768236;81;21336;-77
2021/11/21 05:41:45;;;;;;;20.50;6.97;;;;;;;1.36;96.22;99778.25;1767089;81;21387;-77
2021/11/21 05:44:51;;;;;;;19.10;6.67;;;;;;;1.49;96.56;99779.41;1768223;81;21324;-77
2021/11/21 05:47:57;;;;;;;18.37;6.33;;;;;;;1.64;96.81;99782.13;1767590;81;21280;-77
2021/11/21 05:51:02;;;;;;;17.45;6.33;;;;;;;1.75;96.79;99787.47;1766654;81;21330;-77
2021/11/21 05:54:08;;;;;;;21.75;8.45;;;;;;;1.84;96.76;99783.62;1766909;81;21304;-76
2021/11/21 05:57:14;;;;;;;22.60;7.53;;;;;;;1.86;96.70;99797.81;1768239;81;21780;-78
2021/11/21 06:00:23;;;;;;;28.35;6.45;;;;;;;1.90;96.62;99806.00;1768195;81;21300;-77
2021/11/21 06:03:29;;;;;;;18.73;5.47;;;;;;;1.91;96.37;99817.14;1768266;79;21327;-77
2021/11/21 06:06:34;;;;;;;18.62;7.42;;;;;;;1.86;96.17;99822.09;1808538;79;21774;-77
2021/11/21 06:09:34;;;;;;;23.60;8.43;;;;;;;1.85;96.32;99824.43;1770431;81;21641;-76
2021/11/21 06:12:26;;;;;;;24.82;8.25;;;;;;;1.86;96.44;99826.13;1768905;81;21200;-76
2021/11/21 06:15:32;;;;;;;28.77;9.38;;;;;;;1.89;96.60;99838.87;1770238;81;21303;-77
2021/11/21 06:18:39;;;;;;;22.65;8.60;;;;;;;1.89;96.57;99837.52;1768775;81;21193;-77
2021/11/21 06:21:46;;;;;;;22.37;8.50;;;;;;;1.90;96.57;99839.72;1769712;81;21883;-77
2021/11/21 06:24:52;;;;;;;26.60;8.63;;;;;;;1.93;96.73;99839.43;1770211;81;21719;-77
2021/11/21 06:27:59;;;;;;;27.50;9.00;;;;;;;1.96;96.75;99833.78;1770286;81;21195;-77
2021/11/21 06:31:06;;;;;;;28.87;9.15;;;;;;;2.00;96.88;99832.03;1770134;81;21803;-77
2021/11/21 06:34:11;;;;;;;24.92;9.93;;;;;;;2.08;97.05;99828.69;1769592;81;21337;-77
2021/11/21 06:37:16;;;;;;;26.57;9.78;;;;;;;2.18;97.23;99830.08;1770123;81;21233;-77
2021/11/21 06:40:22;;;;;;;33.13;10.95;;;;;;;2.27;97.26;99832.83;1770251;81;21191;-76
2021/11/21 06:43:28;;;;;;;31.30;11.63;;;;;;;2.32;97.16;99823.47;1738266;82;21197;-77
2021/11/21 06:46:33;;;;;;;29.92;11.90;;;;;;;2.41;97.30;99830.26;1738200;82;21354;-77
2021/11/21 06:49:39;;;;;;;30.52;12.80;;;;;;;2.48;97.25;99836.80;1742383;82;21387;-76
2021/11/21 06:52:44;;;;;;;36.65;12.25;;;;;;;2.52;97.23;99840.09;1769386;81;21300;-76
2021/11/21 06:55:50;;;;;;;36.90;12.15;;;;;;;2.59;97.23;99836.34;1770412;81;21311;-76
2021/11/21 06:58:55;;;;;;;30.12;11.65;;;;;;;2.67;97.14;99840.06;1768836;81;21307;-77
2021/11/21 07:02:02;;;;;;;31.37;11.35;;;;;;;2.72;96.95;99843.20;1769036;81;21193;-77
2021/11/21 07:05:08;;;;;;;28.62;10.82;;;;;;;2.81;96.88;99839.69;1767715;81;21883;-76
2021/11/21 07:08:16;;;;;;;32.90;13.03;;;;;;;2.89;96.76;99848.45;1764671;81;21332;-77
2021/11/21 07:11:21;;;;;;;36.20;15.20;;;;;;;2.95;96.68;99843.84;1802749;79;21822;-76
2021/11/21 07:14:27;;;;;;;30.37;13.72;;;;;;;3.02;96.66;99842.81;1803756;79;21263;-78
2021/11/21 07:17:33;;;;;;;34.33;12.93;;;;;;;3.10;96.65;99844.80;1803463;79;21180;-78
2021/11/21 07:20:38;;;;;;;35.20;15.25;;;;;;;3.16;96.73;99849.16;1801413;79;21296;-78
2021/11/21 07:23:44;;;;;;;35.15;14.38;;;;;;;3.27;96.94;99836.00;1802643;79;21245;-78
2021/11/21 07:26:50;;;;;;;24.80;11.97;;;;;;;3.39;97.17;99829.95;1802906;79;21280;-77
2021/11/21 07:29:56;;;;;;;33.45;13.25;;;;;;;3.55;97.43;99832.95;1802841;79;22378;-78
2021/11/21 07:33:02;;;;;;;29.07;11.55;;;;;;;3.69;97.52;99824.40;1801851;79;21165;-77
2021/11/21 07:36:09;;;;;;;26.95;9.05;;;;;;;3.77;97.46;99817.77;1802567;79;21886;-77
2021/11/21 07:39:15;;;;;;;22.02;7.92;;;;;;;3.85;97.39;99820.58;1802645;79;21283;-77
2021/11/21 07:42:21;;;;;;;14.85;6.33;;;;;;;3.90;97.13;99807.97;1802283;79;21324;-77
2021/11/21 07:45:26;;;;;;;11.80;5.00;;;;;;;4.00;97.25;99806.59;1802690;79;21830;-77
2021/11/21 07:48:32;;;;;;;28.20;6.35;;;;;;;4.10;97.32;99803.39;1802574;79;21157;-77
2021/11/21 07:51:38;;;;;;;17.40;6.72;;;;;;;4.24;97.52;99798.84;1802776;79;21862;-77
2021/11/21 07:54:45;;;;;;;23.10;6.90;;;;;;;4.40;97.62;99797.35;1803283;79;21826;-77
2021/11/21 07:57:50;;;;;;;23.30;6.70;;;;;;;4.55;97.73;99806.18;1802524;79;21189;-77
2021/11/21 08:00:56;;;;;;;14.28;5.97;;;;;;;4.75;97.89;99803.36;1802666;79;21822;-77
2021/11/21 08:04:06;;;;;;;15.10;6.25;;;;;;;4.92;97.92;99803.06;1683192;84;21217;-79
2021/11/21 08:07:12;;;;;;;18.60;6.20;;;;;;;5.03;97.77;99796.06;1734119;83;21851;-78
2021/11/21 08:10:17;;;;;;;23.90;7.15;;;;;;;5.15;97.98;99798.91;1732855;83;21329;-79
2021/11/21 08:13:26;;;;;;;20.30;5.75;;;;;;;5.30;98.09;99786.51;1732784;82;21238;-76
2021/11/21 08:16:32;;;;;;;16.20;5.65;;;;;;;5.48;97.95;99781.08;1765643;81;21197;-76
2021/11/21 08:19:38;;;;;;;15.78;6.53;;;;;;;5.66;97.74;99776.99;1753837;81;21178;-77
2021/11/21 08:22:46;;;;;;;15.65;5.60;;;;;;;5.82;97.62;99768.95;1737579;82;21341;-76
2021/11/21 08:25:52;;;;;;;17.73;5.83;;;;;;;5.97;97.29;99764.34;1737783;82;21198;-77
2021/11/21 08:28:57;;;;;;;24.10;6.20;;;;;;;6.08;96.24;99754.58;1737955;82;21345;-77
2021/11/21 08:32:04;;;;;;;10.55;4.78;;;;;;;6.15;95.71;99755.63;1756960;81;21384;-75
2021/11/21 08:35:11;;;;;;;16.80;6.10;;;;;;;6.26;95.59;99766.23;1748441;81;22507;-76
2021/11/21 08:38:16;;;;;;;14.35;5.45;;;;;;;6.35;95.19;99765.25;1715903;83;21161;-77
2021/11/21 08:41:22;;;;;;;24.10;6.15;;;;;;;6.45;94.84;99767.84;1713130;83;21318;-77
2021/11/21 08:44:28;;;;;;;16.97;5.67;;;;;;;6.56;94.95;99766.69;1713160;83;21330;-77
2021/11/21 08:47:34;;;;;;;18.27;5.25;;;;;;;6.69;94.64;99768.95;1714277;83;21350;-77
2021/11/21 08:50:40;;;;;;;13.90;5.20;;;;;;;6.84;94.32;99770.87;1714510;83;21196;-78
2021/11/21 08:53:46;;;;;;;13.35;5.30;;;;;;;7.00;93.76;99770.55;1713981;83;21311;-79
2021/11/21 08:56:55;;;;;;;15.50;6.15;;;;;;;7.15;93.08;99762.96;1714747;83;21322;-79
2021/11/21 09:00:07;;;;;;;21.25;5.97;;;;;;;7.26;92.37;99756.84;1715691;83;21347;-78
2021/11/21 09:03:08;;;;;;;16.00;5.62;;;;;;;7.34;91.64;99761.79;1716801;81;21969;-78
2021/11/21 09:06:15;;;;;;;16.97;4.55;;;;;;;7.43;91.25;99752.61;1725609;83;21333;-76
2021/11/21 09:09:20;;;;;;;17.65;5.17;;;;;;;7.50;91.10;99751.92;1725568;83;21664;-78
2021/11/21 09:12:26;;;;;;;17.42;4.92;;;;;;;7.59;90.82;99748.19;1726052;83;21330;-79
2021/11/21 09:15:32;;;;;;;17.25;5.22;;;;;;;7.67;90.52;99733.22;1725906;83;21309;-79
2021/11/21 09:18:38;;;;;;;16.30;5.08;;;;;;;7.74;89.75;99729.28;1724732;83;21401;-77
2021/11/21 09:21:44;;;;;;;11.75;4.40;;;;;;;7.81;88.44;99731.64;1725450;83;21368;-77
2021/11/21 09:24:49;;;;;;;15.58;4.90;;;;;;;7.84;87.61;99732.67;1724594;83;21345;-77
2021/11/21 09:27:54;;;;;;;18.98;5.20;;;;;;;7.84;87.21;99722.62;1725584;83;21373;-78
2021/11/21 09:31:01;;;;;;;14.98;5.03;;;;;;;7.85;86.93;99724.83;1725344;83;21351;-79
2021/11/21 09:34:06;;;;;;;21.02;5.60;;;;;;;7.90;86.83;99723.80;1724996;83;22406;-81
2021/11/21 09:37:13;;;;;;;12.82;4.40;;;;;;;8.00;86.61;99714.07;1726095;83;21313;-81
2021/11/21 09:40:19;;;;;;;21.37;6.42;;;;;;;8.10;85.97;99712.02;1725806;83;21932;-79
2021/11/21 09:43:24;;;;;;;13.80;4.58;;;;;;;8.16;85.30;99696.33;1725754;83;21191;-83
2021/11/21 09:46:30;;;;;;;25.97;5.90;;;;;;;8.19;85.18;99708.25;1725981;83;21195;-82
2021/11/21 09:49:34;;;;;;;17.15;4.60;;;;;;;8.29;85.35;99712.13;1725382;83;21931;-80
2021/11/21 09:52:39;;;;;;;17.75;4.87;;;;;;;8.35;84.77;99716.34;1726488;83;21366;-80
2021/11/21 09:55:46;;;;;;;13.88;3.98;;;;;;;8.42;84.62;99718.75;1724919;83;21310;-82
2021/11/21 09:58:52;;;;;;;15.70;4.50;;;;;;;8.49;84.33;99711.22;1724852;83;21408;-79
2021/11/21 10:01:59;;;;;;;18.77;5.25;;;;;;;8.55;84.15;99706.41;1726617;83;21251;-79
2021/11/21 10:05:10;;;;;;;18.67;4.55;;;;;;;8.65;84.38;99712.48;1729097;82;21947;-83
2021/11/21 10:08:28;;;;;;;20.05;5.00;;;;;;;8.79;84.26;99713.09;1739858;82;21273;-78
2021/11/21 10:11:34;;;;;;;19.50;4.83;;;;;;;8.93;83.58;99710.95;1738607;82;21360;-83
2021/11/21 10:14:40;;;;;;;17.02;5.20;;;;;;;9.05;83.06;99710.05;1738357;82;21356;-79
2021/11/21 10:17:50;;;;;;;12.82;4.15;;;;;;;9.14;82.85;99704.02;1738729;82;21313;-80
2021/11/21 10:20:56;;;;;;;27.55;5.30;;;;;;;9.20;82.64;99696.46;1738578;82;21356;-81
2021/11/21 10:24:34;;;;;;;15.18;4.87;;;;;;;9.30;82.39;99692.96;1738637;82;21672;-81
2021/11/21 10:27:42;;;;;;;13.48;4.85;;;;;;;9.44;82.34;99696.25;1676996;85;21372;-82
2021/11/21 10:31:22;;;;;;;17.85;4.67;;;;;;;9.56;81.90;99692.58;1676888;84;21257;-82
2021/11/21 10:34:28;;;;;;;16.65;4.47;;;;;;;9.60;81.58;99691.19;1679731;82;21248;-78
2021/11/21 10:37:44;;;;;;;18.40;4.87;;;;;;;9.65;80.86;99681.07;1738584;82;21931;-83
2021/11/21 10:40:50;;;;;;;16.25;4.50;;;;;;;9.67;80.57;99683.08;1737393;82;21312;-82
2021/11/21 10:44:20;;;;;;;19.35;5.70;;;;;;;9.70;80.29;99686.82;1738612;82;21840;-78
2021/11/21 10:47:25;;;;;;;11.65;3.60;;;;;;;9.65;80.25;99683.80;1738908;82;21496;-80
2021/11/21 10:50:39;;;;;;;16.95;5.83;;;;;;;9.62;80.55;99680.06;1737916;82;21411;-77
2021/11/21 10:53:46;;;;;;;14.07;4.58;;;;;;;9.61;80.80;99684.68;1739571;82;21318;-81
2021/11/21 10:56:55;;;;;;;8.63;3.87;;;;;;;9.66;81.06;99678.66;1732983;81;21211;-77
2021/11/21 11:00:06;;;;;;;14.20;4.58;;;;;;;9.68;81.15;99680.67;1714009;81;21226;-78
2021/11/21 11:03:09;;;;;;;14.75;4.58;;;;;;;9.72;81.21;99688.83;1708190;84;21329;-78
2021/11/21 11:06:34;;;;;;;15.85;5.33;;;;;;;9.69;81.27;99683.73;1751654;80;21202;-78
2021/11/21 11:09:39;;;;;;;16.02;4.85;;;;;;;9.71;81.49;99677.58;1761194;81;21261;-77
2021/11/21 11:12:47;;;;;;;13.58;4.22;;;;;;;9.73;81.39;99680.97;1761055;81;21300;-77
2021/11/21 11:15:53;;;;;;;13.40;4.20;;;;;;;9.75;81.47;99683.02;1760491;81;21316;-80
2021/11/21 11:18:59;;;;;;;12.25;4.55;;;;;;;9.76;81.66;99677.03;1761105;81;21197;-79
2021/11/21 11:22:05;;;;;;;15.93;5.35;;;;;;;9.72;81.77;99680.64;1759906;81;21697;-78
2021/11/21 11:25:20;;;;;;;20.68;4.97;;;;;;;9.68;81.71;99677.42;1761416;81;21331;-78
2021/11/21 11:28:39;;;;;;;17.70;5.42;;;;;;;9.63;81.75;99673.04;1761317;81;21350;-78
2021/11/21 11:31:47;;;;;;;10.75;4.70;;;;;;;9.61;82.16;99679.22;1760303;81;21931;-77
2021/11/21 11:34:53;;;;;;;15.88;5.30;;;;;;;9.57;82.35;99674.31;1761151;81;21338;-78
2021/11/21 11:38:04;;;;;;;10.48;4.53;;;;;;;9.54;82.61;99671.94;1761925;81;21832;-80
2021/11/21 11:41:12;;;;;;;10.13;5.28;;;;;;;9.54;83.03;99667.84;1762104;81;21311;-77
2021/11/21 11:44:17;;;;;;;11.25;5.42;;;;;;;9.51;83.08;99667.72;1762635;81;21304;-76
2021/11/21 11:47:32;;;;;;;14.03;5.50;;;;;;;9.50;83.44;99662.42;1762865;81;21181;-76
2021/11/21 11:50:54;;;;;;;13.50;6.60;;;;;;;9.50;83.70;99662.42;1763702;81;21331;-77
2021/11/21 11:54:03;;;;;;;12.73;5.87;;;;;;;9.50;84.03;99658.33;1763015;81;21772;-76
2021/11/21 11:57:15;;;;;;;14.75;5.90;;;;;;;9.48;84.20;99660.73;1761688;81;21835;-76
2021/11/21 12:00:41;;;;;;;16.70;6.20;;;;;;;9.49;84.50;99658.84;1763653;81;21867;-76
2021/11/21 12:03:50;;;;;;;12.75;5.90;;;;;;;9.51;84.80;99658.16;1762816;81;21360;-77
2021/11/21 12:06:59;;;;;;;13.05;6.25;;;;;;;9.46;85.22;99650.53;1735828;80;21213;-79
2021/11/21 12:10:22;;;;;;;13.75;6.37;;;;;;;9.42;85.81;99651.92;1731395;82;21391;-79
2021/11/21 12:13:39;;;;;;;15.98;7.67;;;;;;;9.42;86.39;99648.35;1713275;82;21337;-78
2021/11/21 12:17:03;;;;;;;12.07;6.75;;;;;;;9.41;86.92;99644.78;1709640;83;21180;-78
2021/11/21 12:20:08;;;;;;;14.10;6.92;;;;;;;9.45;87.33;99650.69;1697562;81;21842;-78
2021/11/21 12:23:15;;;;;;;15.63;7.45;;;;;;;9.52;87.63;99656.28;1710117;82;21951;-78
2021/11/21 12:26:46;;;;;;;10.55;6.33;;;;;;;9.59;87.61;99653.13;1712580;83;21898;-77
2021/11/21 12:29:53;;;;;;;13.18;8.53;;;;;;;9.65;87.48;99649.14;1713744;83;21196;-77
2021/11/21 12:36:18;;;;;;;16.90;10.23;;;;;;;9.71;87.17;99657.10;1693137;81;21220;-79
2021/11/21 12:39:38;;;;;;;15.30;9.30;;;;;;;9.67;86.94;99650.31;1724249;81;21244;-77
2021/11/21 12:42:58;;;;;;;14.13;8.20;;;;;;;9.63;86.84;99659.91;1715258;83;21203;-76
2021/11/21 12:46:08;;;;;;;11.20;8.15;;;;;;;9.61;86.94;99654.64;1715930;83;21233;-76
2021/11/21 12:49:25;;;;;;;17.57;9.75;;;;;;;9.62;87.11;99655.48;1714812;83;21197;-76
2021/11/21 12:52:24;;;;;;;14.65;9.78;;;;;;;9.61;87.21;99646.97;1696483;83;21879;-77
2021/11/21 12:55:29;;;;;;;19.37;9.85;;;;;;;9.63;87.36;99646.25;1715706;83;21300;-77
2021/11/21 12:58:45;;;;;;;26.20;9.98;;;;;;;9.63;87.47;99643.52;1714934;83;21394;-78
2021/11/21 13:01:50;;;;;;;14.25;9.40;;;;;;;9.67;87.63;99650.31;1704430;82;21336;-76
2021/11/21 13:05:09;;;;;;;14.18;8.53;;;;;;;9.67;87.60;99650.31;1684644;85;21323;-76
2021/11/21 13:08:28;;;;;;;13.90;9.45;;;;;;;9.65;87.71;99648.30;1685317;83;21395;-78
2021/11/21 13:11:34;;;;;;;20.88;10.55;;;;;;;9.60;87.99;99641.19;1685835;85;21637;-77
2021/11/21 13:14:39;;;;;;;13.78;9.88;;;;;;;9.57;88.24;99644.28;1686820;85;21281;-76
2021/11/21 13:17:45;;;;;;;17.70;9.63;;;;;;;9.54;88.48;99635.93;1685686;85;21347;-76
2021/11/21 13:20:53;;;;;;;11.50;8.58;;;;;;;9.52;88.83;99631.19;1686677;85;21201;-77
2021/11/21 13:23:59;;;;;;;12.73;9.65;;;;;;;9.50;89.21;99633.76;1686910;85;21346;-77
2021/11/21 13:27:06;;;;;;;15.25;8.95;;;;;;;9.47;89.50;99638.56;1686355;85;21339;-77
2021/11/21 13:30:21;;;;;;;14.53;9.75;;;;;;;9.44;89.86;99644.91;1686870;85;21216;-77
2021/11/21 13:33:28;;;;;;;17.15;10.48;;;;;;;9.38;90.31;99640.20;1687137;85;21375;-76
2021/11/21 13:36:41;;;;;;;15.90;9.58;;;;;;;9.38;90.55;99642.41;1687330;85;21334;-76
2021/11/21 13:39:47;;;;;;;15.38;10.45;;;;;;;9.36;90.85;99636.78;1687152;85;21311;-76
2021/11/21 13:42:52;;;;;;;16.82;10.68;;;;;;;9.33;91.14;99634.45;1686545;85;21350;-76
2021/11/21 13:46:06;;;;;;;12.90;9.45;;;;;;;9.34;91.35;99638.86;1670939;85;21339;-77
2021/11/21 13:49:29;;;;;;;13.98;9.60;;;;;;;9.34;91.45;99645.69;1687354;85;21318;-76
2021/11/21 13:52:37;;;;;;;17.23;9.88;;;;;;;9.32;91.54;99651.34;1687944;85;21338;-77
2021/11/21 13:55:43;;;;;;;11.63;9.65;;;;;;;9.32;91.68;99651.86;1687414;85;21177;-76
2021/11/21 13:58:49;;;;;;;14.33;9.55;;;;;;;9.31;91.69;99646.05;1685913;85;21331;-76
2021/11/21 14:02:00;;;;;;;20.05;9.08;;;;;;;9.31;91.77;99640.07;1686121;85;21205;-76
2021/11/21 14:05:09;;;;;;;15.95;9.85;;;;;;;9.29;91.82;99639.42;1687349;85;21331;-77
2021/11/21 14:08:14;;;;;;;14.45;9.38;;;;;;;9.27;91.93;99636.04;1686639;85;21343;-76
2021/11/21 14:11:20;;;;;;;17.62;10.63;;;;;;;9.26;92.03;99636.20;1685347;85;21324;-77
2021/11/21 14:14:27;;;;;;;15.08;10.35;;;;;;;9.26;92.15;99634.84;1653469;86;21351;-77
2021/11/21 14:17:36;;;;;;;14.87;9.50;;;;;;;9.29;92.20;99635.84;1654483;86;21319;-76
2021/11/21 14:20:52;;;;;;;19.15;11.18;;;;;;;9.30;92.14;99633.44;1642390;87;21398;-76
2021/11/21 14:23:59;;;;;;;18.15;11.15;;;;;;;9.28;92.03;99628.70;1653304;86;21216;-76
2021/11/21 14:27:25;;;;;;;19.15;11.08;;;;;;;9.26;92.12;99632.11;1646970;87;21854;-77
2021/11/21 14:30:32;;;;;;;16.20;10.60;;;;;;;9.24;92.03;99626.84;1644766;85;21391;-77
2021/11/21 14:33:41;;;;;;;14.58;9.95;;;;;;;9.16;92.01;99627.75;1646647;87;21330;-77
2021/11/21 14:36:47;;;;;;;16.02;10.20;;;;;;;9.08;92.37;99622.88;1626622;88;21343;-76
2021/11/21 14:39:54;;;;;;;15.65;10.32;;;;;;;9.00;92.82;99616.15;1642553;87;21378;-77
2021/11/21 14:43:02;;;;;;;10.98;8.83;;;;;;;8.95;93.23;99616.17;1625235;88;21943;-77